Time;durP1;ratioP1;P1;durP2;ratioP2;P2;SDS_P1;SDS_P2;PMS_P1;PMS_P2;Temp;Humidity;BMP_temperature;BMP_pressure;BME280_temperature;BME280_humidity;BME280_pressure;Samples;Min_cycle;Max_cycle;Signal;HPM_P1;HPM_P2
2021/08/22 00:00:12;;;;;;;2.90;1.87;;;;;;;12.21;94.31;101268.16;5054479;28;20663;-67
2021/08/22 00:02:37;;;;;;;3.20;1.77;;;;;;;12.01;96.03;101261.19;5053626;28;20636;-68
2021/08/22 00:05:03;;;;;;;2.20;1.80;;;;;;;11.80;98.21;101259.59;5053640;28;20180;-67
2021/08/22 00:07:28;;;;;;;6.80;1.93;;;;;;;11.78;97.98;101257.00;5054631;28;20648;-67
2021/08/22 00:09:55;;;;;;;3.87;1.80;;;;;;;12.01;96.03;101253.16;5053166;28;20238;-68
2021/08/22 00:12:20;;;;;;;2.97;2.20;;;;;;;12.02;95.81;101246.84;5054389;28;20172;-68
2021/08/22 00:14:45;;;;;;;3.20;2.17;;;;;;;11.96;96.51;101249.84;5054289;28;20233;-67
2021/08/22 00:17:11;;;;;;;1.77;1.67;;;;;;;12.01;96.30;101249.63;5054618;28;20199;-68
2021/08/22 00:19:36;;;;;;;3.17;2.20;;;;;;;12.04;95.14;101255.66;5054607;28;20195;-68
2021/08/22 00:22:01;;;;;;;4.00;1.80;;;;;;;12.18;93.94;101253.13;5053202;28;20285;-68
2021/08/22 00:24:26;;;;;;;2.90;2.00;;;;;;;12.18;94.55;101247.75;5053339;28;20172;-68
2021/08/22 00:26:52;;;;;;;3.20;1.93;;;;;;;12.16;94.13;101249.66;5053152;28;20175;-68
2021/08/22 00:29:17;;;;;;;2.90;1.80;;;;;;;12.02;95.74;101243.31;5053115;28;20196;-68
2021/08/22 00:31:43;;;;;;;1.83;1.70;;;;;;;11.92;97.14;101252.78;5053181;28;20195;-69
2021/08/22 00:34:08;;;;;;;1.90;1.70;;;;;;;11.87;97.33;101250.31;5054312;28;20186;-67
2021/08/22 00:36:33;;;;;;;4.47;1.80;;;;;;;11.83;97.37;101248.75;5054045;28;20179;-67
2021/08/22 00:38:58;;;;;;;5.03;2.00;;;;;;;11.58;99.37;101244.63;5053415;28;20257;-66
2021/08/22 00:41:24;;;;;;;3.80;2.40;;;;;;;11.58;99.22;101241.97;5053325;28;20183;-67
2021/08/22 00:43:49;;;;;;;3.70;2.07;;;;;;;11.56;99.90;101235.81;5052496;28;20186;-67
2021/08/22 00:46:15;;;;;;;5.03;2.83;;;;;;;11.62;99.10;101228.44;5053743;28;20179;-67
2021/08/22 00:48:42;;;;;;;6.20;2.63;;;;;;;11.70;98.58;101235.13;5054326;28;20191;-67
2021/08/22 00:51:07;;;;;;;6.83;3.00;;;;;;;11.61;98.89;101230.25;5053783;28;20276;-67
2021/08/22 00:53:33;;;;;;;6.23;3.23;;;;;;;11.69;98.88;101229.84;5053531;28;20206;-67
2021/08/22 00:56:03;;;;;;;8.17;3.50;;;;;;;11.67;98.23;101226.38;5053557;28;20187;-66
2021/08/22 00:58:29;;;;;;;9.00;3.90;;;;;;;11.72;98.14;101229.69;5053833;28;20199;-67
2021/08/22 01:00:54;;;;;;;9.83;4.90;;;;;;;11.71;98.06;101222.59;5052295;28;20253;-69
2021/08/22 01:03:29;;;;;;;9.43;4.73;;;;;;;11.68;98.16;101223.63;5052323;28;20187;-68
2021/08/22 01:05:56;;;;;;;10.90;5.80;;;;;;;11.72;98.11;101225.19;5053636;28;20164;-68
2021/08/22 01:08:35;;;;;;;12.37;6.37;;;;;;;11.68;97.69;101223.63;5052278;28;20200;-68
2021/08/22 01:11:18;;;;;;;14.67;6.63;;;;;;;11.69;98.12;101221.81;5055137;28;20220;-68
2021/08/22 01:13:56;;;;;;;9.53;6.23;;;;;;;11.67;98.71;101221.03;5056898;28;20171;-68
2021/08/22 01:16:23;;;;;;;12.07;6.63;;;;;;;11.61;98.71;101224.91;5056888;28;20250;-67
2021/08/22 01:18:50;;;;;;;11.80;6.57;;;;;;;11.48;100.00;101226.44;5052404;28;20571;-69
2021/08/22 01:21:17;;;;;;;11.20;6.53;;;;;;;11.40;100.00;101224.16;5052182;28;20182;-67
2021/08/22 01:23:54;;;;;;;10.73;5.90;;;;;;;11.37;100.00;101218.09;5053192;28;20172;-67
2021/08/22 01:26:26;;;;;;;13.97;6.07;;;;;;;11.32;100.00;101210.31;5052389;28;20253;-68
2021/08/22 01:28:52;;;;;;;12.57;5.83;;;;;;;11.32;100.00;101201.44;5053365;28;20191;-69
2021/08/22 01:31:21;;;;;;;9.90;6.33;;;;;;;11.25;100.00;101216.91;5052232;28;20175;-68
2021/08/22 01:33:48;;;;;;;13.23;6.07;;;;;;;11.20;100.00;101214.47;5052895;28;20211;-68
2021/08/22 01:36:13;;;;;;;12.77;5.73;;;;;;;11.21;100.00;101208.19;5052552;28;20180;-69
2021/08/22 01:38:40;;;;;;;10.20;5.83;;;;;;;11.38;100.00;101207.34;5053332;28;20261;-68
2021/08/22 01:41:05;;;;;;;9.67;5.73;;;;;;;11.50;99.23;101206.69;5051812;28;20195;-66
2021/08/22 01:43:32;;;;;;;11.70;5.57;;;;;;;11.55;98.79;101209.16;5051729;28;20175;-68
2021/08/22 01:45:58;;;;;;;7.63;4.97;;;;;;;11.67;98.22;101208.53;5051922;28;20172;-68
2021/08/22 01:48:24;;;;;;;11.33;5.00;;;;;;;11.62;98.15;101204.38;5052049;28;20187;-67
2021/08/22 01:50:54;;;;;;;11.53;5.27;;;;;;;11.60;98.28;101193.75;5053262;28;20195;-68
2021/08/22 01:53:20;;;;;;;9.63;5.00;;;;;;;11.58;98.29;101196.50;5059918;28;20167;-67
2021/08/22 01:55:45;;;;;;;9.70;5.10;;;;;;;11.55;98.71;101202.00;5058312;28;20652;-67
2021/08/22 01:58:11;;;;;;;8.23;4.63;;;;;;;11.55;98.25;101198.47;5059535;28;20675;-68
2021/08/22 02:00:36;;;;;;;7.50;4.13;;;;;;;11.54;98.79;101204.78;5059561;28;20199;-68
2021/08/22 02:03:10;;;;;;;7.77;4.30;;;;;;;11.53;98.61;101203.91;5059371;28;20179;-68
2021/08/22 02:05:39;;;;;;;6.00;4.17;;;;;;;11.48;98.94;101208.59;5058650;28;20166;-68
2021/08/22 02:08:10;;;;;;;8.03;4.50;;;;;;;11.43;99.31;101202.63;5059260;28;20640;-67
2021/08/22 02:10:39;;;;;;;10.00;4.60;;;;;;;11.45;98.79;101203.41;5058030;28;20256;-68
2021/08/22 02:13:04;;;;;;;7.43;4.53;;;;;;;11.49;98.71;101202.31;5058040;28;20191;-68
2021/08/22 02:15:41;;;;;;;6.60;4.00;;;;;;;11.40;98.90;101208.13;5059991;28;20183;-68
2021/08/22 02:18:11;;;;;;;8.13;4.30;;;;;;;11.30;100.00;101206.00;5058618;28;20225;-68
2021/08/22 02:20:38;;;;;;;7.73;4.10;;;;;;;11.33;100.00;101195.16;5058237;28;20194;-68
2021/08/22 02:23:03;;;;;;;6.23;3.60;;;;;;;11.30;100.00;101190.81;5058143;28;20176;-68
2021/08/22 02:25:29;;;;;;;5.30;3.97;;;;;;;11.31;100.00;101189.03;5058294;28;20609;-68
2021/08/22 02:27:56;;;;;;;8.30;3.87;;;;;;;11.37;99.87;101186.03;5058047;28;20262;-68
2021/08/22 02:30:22;;;;;;;5.87;3.73;;;;;;;11.45;98.43;101179.34;5057941;28;20206;-68
2021/08/22 02:32:47;;;;;;;6.97;3.67;;;;;;;11.60;97.46;101169.69;5058399;28;20250;-68
2021/08/22 02:35:13;;;;;;;7.20;3.83;;;;;;;11.76;96.88;101165.25;5058505;28;20662;-68
2021/08/22 02:37:38;;;;;;;6.73;3.80;;;;;;;11.75;96.48;101165.34;5058367;28;20253;-67
2021/08/22 02:40:04;;;;;;;7.13;3.90;;;;;;;11.77;96.41;101158.97;5059584;28;20195;-68
2021/08/22 02:42:29;;;;;;;7.07;3.77;;;;;;;11.76;96.94;101156.38;5059254;28;20190;-68
2021/08/22 02:44:55;;;;;;;9.10;3.40;;;;;;;11.70;97.08;101143.34;5059192;28;20172;-68
2021/08/22 02:47:20;;;;;;;8.60;4.07;;;;;;;11.57;97.44;101149.34;5059512;28;20237;-68
2021/08/22 02:49:45;;;;;;;6.10;3.40;;;;;;;11.52;98.12;101142.47;5059034;28;20219;-68
2021/08/22 02:52:10;;;;;;;7.40;3.53;;;;;;;11.52;98.46;101140.69;5057961;28;20175;-68
2021/08/22 02:54:36;;;;;;;5.70;3.63;;;;;;;11.49;98.14;101148.84;5058882;28;20186;-68
2021/08/22 02:57:02;;;;;;;7.03;3.77;;;;;;;11.43;98.55;101157.19;5059104;28;20273;-68
2021/08/22 02:59:27;;;;;;;5.30;3.20;;;;;;;11.37;99.28;101154.81;5059185;28;20285;-68
2021/08/22 03:01:52;;;;;;;5.73;3.50;;;;;;;11.25;100.00;101152.78;5058234;28;20168;-68
2021/08/22 03:04:17;;;;;;;6.43;3.80;;;;;;;11.08;100.00;101153.63;5053968;28;20183;-69
2021/08/22 03:06:43;;;;;;;7.13;3.57;;;;;;;10.96;100.00;101152.44;5056177;28;20172;-68
2021/08/22 03:09:08;;;;;;;6.43;3.50;;;;;;;10.90;100.00;101151.88;5055587;28;20199;-68
2021/08/22 03:11:33;;;;;;;7.67;4.07;;;;;;;10.88;100.00;101154.63;5056059;28;20164;-68
2021/08/22 03:13:59;;;;;;;7.43;3.60;;;;;;;10.93;100.00;101152.59;5054523;28;20233;-67
2021/08/22 03:16:24;;;;;;;6.53;3.97;;;;;;;10.92;100.00;101150.84;5055922;28;20186;-68
2021/08/22 03:18:49;;;;;;;9.10;3.70;;;;;;;10.98;100.00;101149.69;5055646;28;20226;-69
2021/08/22 03:21:15;;;;;;;7.23;3.70;;;;;;;10.96;100.00;101149.75;5055376;28;20529;-68
2021/08/22 03:23:40;;;;;;;7.10;3.83;;;;;;;11.05;100.00;101156.44;5055404;28;20176;-68
2021/08/22 03:26:05;;;;;;;4.93;3.93;;;;;;;11.16;100.00;101158.59;5055617;28;20257;-68
2021/08/22 03:28:31;;;;;;;8.03;3.63;;;;;;;11.27;99.90;101148.22;5055632;28;20176;-68
2021/08/22 03:30:56;;;;;;;6.03;3.93;;;;;;;11.43;98.81;101154.50;5054541;28;20521;-68
2021/08/22 03:33:21;;;;;;;7.10;4.07;;;;;;;11.34;98.54;101148.78;5054331;28;20191;-68
2021/08/22 03:35:47;;;;;;;10.57;3.73;;;;;;;11.41;98.19;101150.19;5053753;28;20207;-67
2021/08/22 03:38:13;;;;;;;4.90;3.37;;;;;;;11.41;98.00;101156.41;5055249;28;20207;-67
2021/08/22 03:40:38;;;;;;;5.80;3.73;;;;;;;11.49;97.31;101162.22;5053995;28;20191;-68
2021/08/22 03:43:04;;;;;;;6.70;3.13;;;;;;;11.65;96.04;101172.13;5055192;28;20175;-68
2021/08/22 03:45:29;;;;;;;3.77;3.30;;;;;;;11.69;95.73;101168.34;5053685;28;20190;-68
2021/08/22 03:47:54;;;;;;;5.63;3.47;;;;;;;11.80;95.27;101171.34;5055387;28;20739;-68
2021/08/22 03:50:20;;;;;;;6.43;3.67;;;;;;;11.89;94.27;101170.84;5054952;28;20206;-68
2021/08/22 03:52:49;;;;;;;8.80;3.57;;;;;;;11.95;93.85;101167.00;5053501;28;20184;-68
2021/08/22 03:55:15;;;;;;;6.90;3.97;;;;;;;12.06;91.92;101164.63;5054688;28;20183;-67
2021/08/22 03:57:40;;;;;;;7.80;4.37;;;;;;;12.09;91.74;101164.47;5054989;28;20687;-68
2021/08/22 04:00:06;;;;;;;7.00;3.93;;;;;;;12.08;91.96;101170.75;5053716;28;20221;-68
2021/08/22 04:02:31;;;;;;;4.77;3.63;;;;;;;12.12;90.52;101159.81;5054709;28;20179;-69
2021/08/22 04:04:59;;;;;;;6.20;3.97;;;;;;;12.20;89.75;101162.06;5054507;28;20182;-67
2021/08/22 04:07:24;;;;;;;8.27;3.73;;;;;;;12.18;90.08;101164.81;5052942;28;20175;-66
2021/08/22 04:09:49;;;;;;;9.53;4.00;;;;;;;12.30;88.72;101168.66;5075354;22;20297;-72
2021/08/22 04:12:14;;;;;;;5.70;3.60;;;;;;;12.37;88.86;101164.69;5053009;28;20168;-73
2021/08/22 04:14:40;;;;;;;5.57;3.80;;;;;;;12.38;88.78;101162.88;5052799;28;20211;-73
2021/08/22 04:17:05;;;;;;;6.63;3.47;;;;;;;12.18;90.81;101159.47;5053521;28;20184;-73
2021/08/22 04:19:30;;;;;;;8.13;3.57;;;;;;;12.17;90.00;101157.72;5053026;28;20206;-72
2021/08/22 04:21:57;;;;;;;6.83;3.97;;;;;;;12.02;91.12;101160.38;5053437;28;20176;-72
2021/08/22 04:24:22;;;;;;;5.93;3.57;;;;;;;12.03;91.81;101162.97;5053020;28;20606;-73
2021/08/22 04:26:48;;;;;;;7.67;4.17;;;;;;;12.11;90.85;101159.88;5054293;28;20177;-73
2021/08/22 04:29:13;;;;;;;6.07;3.83;;;;;;;12.03;92.31;101162.97;5052952;28;20175;-72
2021/08/22 04:31:39;;;;;;;8.27;4.00;;;;;;;12.08;91.51;101149.34;5036031;28;20199;-73
2021/08/22 04:34:05;;;;;;;5.93;4.20;;;;;;;11.95;92.47;101149.16;5054078;28;20175;-74
2021/08/22 04:36:30;;;;;;;7.33;3.80;;;;;;;12.04;90.87;101148.66;5035862;28;20180;-73
2021/08/22 04:38:55;;;;;;;6.00;4.00;;;;;;;12.11;91.26;101154.53;5053053;28;20211;-73
2021/08/22 04:41:21;;;;;;;5.43;3.70;;;;;;;12.17;90.11;101155.06;5035710;28;20683;-73
2021/08/22 04:43:47;;;;;;;9.03;3.80;;;;;;;12.08;90.78;101152.88;5052503;28;20168;-74
2021/08/22 04:46:13;;;;;;;7.20;4.17;;;;;;;12.16;90.26;101145.31;5052464;28;20536;-74
2021/08/22 04:48:38;;;;;;;7.53;4.43;;;;;;;12.16;89.84;101145.31;5053590;28;20189;-74
2021/08/22 04:51:04;;;;;;;9.00;4.10;;;;;;;12.18;89.35;101147.91;5052369;28;20275;-73
2021/08/22 04:53:29;;;;;;;7.00;3.97;;;;;;;12.25;89.46;101138.56;5053286;28;20576;-74
2021/08/22 04:55:54;;;;;;;5.87;3.30;;;;;;;12.13;90.50;101142.78;5054580;28;20176;-74
2021/08/22 04:58:20;;;;;;;6.40;3.67;;;;;;;12.07;90.25;101147.63;5052665;28;20562;-75
2021/08/22 05:00:45;;;;;;;7.83;4.30;;;;;;;12.17;89.14;101139.00;5052920;28;20245;-73
2021/08/22 05:03:10;;;;;;;9.13;3.73;;;;;;;12.18;89.25;101138.06;5052837;28;20175;-74
2021/08/22 05:05:35;;;;;;;5.17;3.47;;;;;;;12.16;89.29;101125.72;5051985;28;20600;-74
2021/08/22 05:08:01;;;;;;;5.33;3.23;;;;;;;12.13;89.30;101129.41;5052031;28;20229;-74
2021/08/22 05:10:26;;;;;;;6.30;3.33;;;;;;;12.27;88.29;101128.69;5053269;28;20207;-74
2021/08/22 05:12:51;;;;;;;6.97;3.87;;;;;;;12.26;88.04;101126.06;5053365;28;20549;-73
2021/08/22 05:15:17;;;;;;;7.77;4.20;;;;;;;12.45;86.23;101118.75;5053586;28;20188;-74
2021/08/22 05:17:42;;;;;;;6.87;3.30;;;;;;;12.68;85.05;101121.00;5053457;28;20580;-73
2021/08/22 05:20:08;;;;;;;5.60;3.60;;;;;;;12.50;86.26;101122.88;5051790;28;20644;-73
2021/08/22 05:22:34;;;;;;;4.73;3.03;;;;;;;12.57;86.25;101127.91;5053316;28;20258;-73
2021/08/22 05:24:59;;;;;;;6.70;3.40;;;;;;;12.50;86.19;101127.38;5051551;28;20180;-73
2021/08/22 05:27:24;;;;;;;4.93;3.13;;;;;;;12.74;85.21;101131.34;5051125;28;20705;-74
2021/08/22 05:29:49;;;;;;;5.73;3.20;;;;;;;12.87;84.40;101131.50;5052832;28;20204;-73
2021/08/22 05:32:15;;;;;;;5.13;2.67;;;;;;;12.86;83.67;101132.47;5051773;28;20709;-73
2021/08/22 05:34:40;;;;;;;5.37;2.80;;;;;;;12.91;83.21;101137.56;5052006;28;20175;-74
2021/08/22 05:37:05;;;;;;;4.43;2.60;;;;;;;12.86;83.80;101132.47;5052857;28;20184;-75
2021/08/22 05:39:31;;;;;;;4.93;2.43;;;;;;;12.95;83.03;101136.41;5051901;28;20172;-74
2021/08/22 05:41:56;;;;;;;7.30;2.50;;;;;;;12.95;83.49;101145.31;5053512;28;20218;-74
2021/08/22 05:44:21;;;;;;;3.93;2.47;;;;;;;13.01;82.88;101141.44;5052231;28;20184;-74
2021/08/22 05:46:46;;;;;;;4.00;2.57;;;;;;;13.09;83.57;101150.75;5056888;28;20205;-74
2021/08/22 05:49:12;;;;;;;4.07;2.47;;;;;;;13.24;82.40;101156.19;5055908;28;20175;-75
2021/08/22 05:51:37;;;;;;;5.33;2.20;;;;;;;13.37;82.53;101152.69;5051688;28;20684;-74
2021/08/22 05:54:02;;;;;;;4.90;2.50;;;;;;;13.38;82.91;101153.56;5052762;28;20636;-74
2021/08/22 05:56:28;;;;;;;3.80;2.60;;;;;;;13.25;82.53;101142.69;5051599;28;20248;-74
2021/08/22 05:58:53;;;;;;;4.17;2.10;;;;;;;13.15;82.73;101153.06;5052815;28;20207;-73
2021/08/22 06:01:18;;;;;;;5.33;2.47;;;;;;;13.20;82.90;101149.28;5051630;28;20203;-74
2021/08/22 06:03:44;;;;;;;4.13;1.97;;;;;;;13.32;82.42;101152.09;5052725;28;20176;-73
2021/08/22 06:06:09;;;;;;;3.20;1.97;;;;;;;13.26;82.67;101144.44;5035368;28;20222;-74
2021/08/22 06:08:35;;;;;;;4.20;2.27;;;;;;;13.40;81.97;101141.81;5051363;28;20242;-73
2021/08/22 06:11:00;;;;;;;2.53;2.00;;;;;;;13.36;82.15;101142.06;5051532;28;20207;-73
2021/08/22 06:13:26;;;;;;;4.17;2.33;;;;;;;13.34;82.80;101147.50;5053150;28;20176;-73
2021/08/22 06:15:51;;;;;;;3.73;2.00;;;;;;;13.58;81.27;101141.66;5052661;28;20222;-74
2021/08/22 06:18:17;;;;;;;3.57;1.93;;;;;;;13.52;82.24;101133.97;5052822;28;20210;-74
2021/08/22 06:20:44;;;;;;;3.17;2.20;;;;;;;13.49;81.55;101139.53;5053537;28;20199;-73
2021/08/22 06:23:09;;;;;;;3.70;1.90;;;;;;;13.73;80.33;101143.38;5058188;28;20190;-74
2021/08/22 06:25:34;;;;;;;3.07;2.10;;;;;;;13.71;81.29;101129.19;5053839;28;20176;-74
2021/08/22 06:28:00;;;;;;;3.60;2.17;;;;;;;13.63;82.37;101131.50;5054554;28;20171;-74
2021/08/22 06:30:25;;;;;;;4.10;1.90;;;;;;;13.83;80.56;101131.16;5059611;28;20647;-74
2021/08/22 06:32:50;;;;;;;3.63;1.90;;;;;;;13.89;79.78;101128.09;5058343;28;20217;-74
2021/08/22 06:35:16;;;;;;;4.23;1.60;;;;;;;13.88;79.86;101138.91;5051271;28;20183;-73
2021/08/22 06:37:41;;;;;;;2.03;1.50;;;;;;;13.78;80.53;101135.94;5053148;28;20196;-74
2021/08/22 06:40:07;;;;;;;3.33;1.63;;;;;;;13.89;80.24;101138.81;5055147;28;20203;-74
2021/08/22 06:42:33;;;;;;;4.83;1.80;;;;;;;14.12;79.91;101136.50;5055045;28;20282;-73
2021/08/22 06:44:58;;;;;;;3.07;1.50;;;;;;;14.16;79.39;101130.88;5055811;28;20176;-73
2021/08/22 06:47:24;;;;;;;5.40;2.00;;;;;;;14.24;79.90;101139.31;5056480;28;20177;-73
2021/08/22 06:49:50;;;;;;;4.10;1.57;;;;;;;14.22;80.00;101135.84;5038464;28;20535;-73
2021/08/22 06:52:16;;;;;;;2.50;1.50;;;;;;;14.36;79.91;101137.66;5054828;28;20180;-74
2021/08/22 06:54:41;;;;;;;3.87;1.70;;;;;;;14.55;79.68;101138.25;5054883;28;20533;-74
2021/08/22 06:57:08;;;;;;;5.57;1.80;;;;;;;14.72;79.40;101138.97;5056247;28;20699;-73
2021/08/22 06:59:33;;;;;;;4.17;1.80;;;;;;;14.68;79.10;101144.53;5054699;28;20254;-73
2021/08/22 07:01:58;;;;;;;3.07;1.80;;;;;;;14.64;78.66;101143.00;5054673;28;20230;-74
2021/08/22 07:04:24;;;;;;;2.70;1.60;;;;;;;14.55;79.75;101138.25;5055907;28;20698;-73
2021/08/22 07:06:49;;;;;;;2.17;1.43;;;;;;;14.97;79.03;101133.72;5037863;28;20179;-73
2021/08/22 07:09:14;;;;;;;3.03;1.67;;;;;;;15.00;78.84;101133.50;5056205;28;20180;-74
2021/08/22 07:11:39;;;;;;;3.73;1.70;;;;;;;15.06;78.86;101130.41;5055281;28;20586;-73
2021/08/22 07:14:05;;;;;;;1.90;1.23;;;;;;;15.36;77.90;101129.31;5055871;28;20180;-75
2021/08/22 07:16:30;;;;;;;3.43;1.50;;;;;;;15.33;77.85;101130.38;5039343;28;20179;-73
2021/08/22 07:18:55;;;;;;;3.70;1.60;;;;;;;15.59;76.10;101132.16;5056354;28;20222;-73
2021/08/22 07:21:21;;;;;;;3.77;1.83;;;;;;;15.52;76.55;101129.97;5057634;28;20199;-73
2021/08/22 07:23:47;;;;;;;3.63;1.57;;;;;;;15.85;76.30;101138.41;5054657;28;20176;-73
2021/08/22 07:26:12;;;;;;;2.87;1.50;;;;;;;16.23;74.85;101130.31;5054576;28;20264;-74
2021/08/22 07:28:37;;;;;;;2.37;1.27;;;;;;;16.39;74.84;101131.94;5054363;28;20187;-73
2021/08/22 07:31:06;;;;;;;3.23;1.60;;;;;;;16.31;73.64;101124.38;5053986;28;20199;-74
2021/08/22 07:33:32;;;;;;;2.90;1.37;;;;;;;16.77;74.16;101134.53;5054225;28;20183;-74
2021/08/22 07:35:58;;;;;;;6.47;1.40;;;;;;;17.04;73.21;101131.59;5054011;28;20262;-74
2021/08/22 07:38:23;;;;;;;2.63;1.37;;;;;;;16.56;74.00;101127.00;5053803;28;20291;-74
2021/08/22 07:40:49;;;;;;;4.03;1.33;;;;;;;16.72;73.31;101125.91;5055601;28;20195;-73
2021/08/22 07:43:16;;;;;;;2.70;1.30;;;;;;;17.21;71.82;101136.59;5053744;28;20183;-74
2021/08/22 07:45:41;;;;;;;2.63;1.23;;;;;;;16.85;71.83;101129.44;5053969;28;20616;-75
2021/08/22 07:48:07;;;;;;;2.20;1.43;;;;;;;16.97;71.78;101142.00;5053809;28;20251;-74
2021/08/22 07:50:32;;;;;;;3.33;1.20;;;;;;;17.00;72.04;101132.81;5054335;28;20610;-74
2021/08/22 07:52:57;;;;;;;2.50;1.20;;;;;;;16.96;70.84;101132.19;5053924;28;20184;-73
2021/08/22 07:55:23;;;;;;;2.57;1.40;;;;;;;16.61;71.33;101129.38;5054845;28;20186;-74
2021/08/22 07:57:48;;;;;;;5.47;1.50;;;;;;;16.74;72.03;101121.28;5055232;28;20249;-74
2021/08/22 08:00:13;;;;;;;3.27;1.63;;;;;;;16.92;71.80;101119.91;5054502;28;20568;-73
2021/08/22 08:02:39;;;;;;;2.57;1.50;;;;;;;16.64;72.22;101114.81;5053315;28;20222;-74
2021/08/22 08:05:04;;;;;;;3.50;1.80;;;;;;;16.84;72.75;101114.22;5053584;28;20175;-75
2021/08/22 08:07:29;;;;;;;3.90;1.30;;;;;;;17.04;71.96;101113.59;5054788;28;20222;-75
2021/08/22 08:09:55;;;;;;;3.47;1.10;;;;;;;17.00;72.09;101114.78;5054390;28;20207;-74
2021/08/22 08:12:20;;;;;;;1.30;1.07;;;;;;;17.08;71.29;101125.84;5053348;28;20211;-74
2021/08/22 08:14:46;;;;;;;2.60;1.83;;;;;;;17.09;71.53;101121.31;5053349;28;20632;-74
2021/08/22 08:17:11;;;;;;;2.80;1.47;;;;;;;17.05;71.65;101125.22;5054786;28;20229;-73
2021/08/22 08:19:36;;;;;;;3.47;1.43;;;;;;;17.48;70.53;101117.44;5053385;28;20195;-74
2021/08/22 08:22:02;;;;;;;2.27;1.23;;;;;;;17.31;70.27;101118.72;5053123;28;20171;-74
2021/08/22 08:24:28;;;;;;;2.73;1.40;;;;;;;17.46;70.81;101122.06;5053157;28;20186;-73
2021/08/22 08:26:53;;;;;;;2.33;1.50;;;;;;;17.28;70.39;101116.25;5054686;28;20223;-75
2021/08/22 08:29:18;;;;;;;3.37;1.20;;;;;;;17.69;70.37;101121.19;5053828;28;20172;-74
2021/08/22 08:31:44;;;;;;;2.90;1.70;;;;;;;17.75;69.47;101114.44;5053632;28;20203;-74
2021/08/22 08:34:09;;;;;;;3.73;1.53;;;;;;;18.15;68.40;101109.44;5053107;28;20646;-74
2021/08/22 08:36:34;;;;;;;4.17;1.57;;;;;;;17.92;69.32;101113.13;5054236;28;20168;-74
2021/08/22 08:39:00;;;;;;;3.23;1.90;;;;;;;17.97;68.67;101108.22;5053009;28;20203;-73
2021/08/22 08:41:25;;;;;;;3.83;1.60;;;;;;;17.95;68.57;101118.28;5053409;28;20695;-74
2021/08/22 08:43:50;;;;;;;2.80;1.77;;;;;;;17.97;68.61;101110.94;5053608;28;20180;-75
2021/08/22 08:46:33;;;;;;;6.70;1.50;;;;;;;17.96;68.43;101117.31;5035638;28;20175;-74
2021/08/22 08:49:06;;;;;;;4.93;1.87;;;;;;;18.07;67.93;101126.28;5053563;28;20159;-74
2021/08/22 08:51:46;;;;;;;3.33;1.90;;;;;;;18.31;67.64;101118.06;5052469;28;20199;-73
2021/08/22 08:54:23;;;;;;;2.43;1.50;;;;;;;18.26;68.24;101120.28;5052609;28;20239;-75
2021/08/22 08:56:48;;;;;;;4.40;1.83;;;;;;;18.38;67.82;101118.41;5052427;28;20183;-74
2021/08/22 08:59:14;;;;;;;3.30;1.53;;;;;;;18.51;67.15;101129.06;5052455;28;20214;-74
2021/08/22 09:01:40;;;;;;;5.67;1.70;;;;;;;18.25;67.42;101118.56;5051510;28;20672;-74
2021/08/22 09:04:21;;;;;;;2.63;1.47;;;;;;;18.47;67.84;101127.59;5052756;28;20203;-76
2021/08/22 09:06:59;;;;;;;2.87;1.60;;;;;;;18.24;67.68;101118.69;5053759;28;20160;-73
2021/08/22 09:10:02;;;;;;;3.00;1.63;;;;;;;18.24;67.57;101116.84;5051906;28;20246;-74
2021/08/22 09:12:58;;;;;;;5.23;1.33;;;;;;;18.43;67.94;101116.19;5053614;28;20596;-74
2021/08/22 09:16:00;;;;;;;3.00;1.53;;;;;;;18.70;67.46;101118.53;5053669;28;20197;-74
2021/08/22 09:19:02;;;;;;;3.27;1.50;;;;;;;18.59;67.06;101110.41;5052056;28;20298;-75
2021/08/22 09:22:05;;;;;;;1.93;1.17;;;;;;;18.63;67.43;101107.34;5052289;28;20203;-76
2021/08/22 09:24:30;;;;;;;1.93;1.30;;;;;;;18.85;67.41;101109.13;5052022;28;20663;-75
2021/08/22 09:27:34;;;;;;;3.33;1.30;;;;;;;18.63;67.38;101111.91;5053812;28;20207;-76
2021/08/22 09:29:59;;;;;;;3.80;1.50;;;;;;;18.57;67.63;101105.09;5053081;28;20195;-75
2021/08/22 09:32:49;;;;;;;4.07;1.37;;;;;;;18.36;67.79;101102.31;5051890;28;20190;-74
2021/08/22 09:35:14;;;;;;;4.13;1.20;;;;;;;18.93;66.73;101103.06;5053426;28;20171;-74
2021/08/22 09:37:58;;;;;;;3.10;1.40;;;;;;;18.94;66.04;101092.13;5053145;28;20198;-74
2021/08/22 09:40:35;;;;;;;3.07;1.40;;;;;;;18.68;67.33;101088.91;5053803;28;20199;-74
2021/08/22 09:43:38;;;;;;;2.80;1.30;;;;;;;19.25;65.61;101086.84;5053007;28;20164;-75
2021/08/22 09:47:00;;;;;;;3.90;1.30;;;;;;;19.19;66.19;101082.81;5053011;28;20250;-75
2021/08/22 09:50:03;;;;;;;1.97;1.20;;;;;;;19.19;66.35;101090.94;5053367;28;20644;-74
2021/08/22 09:53:03;;;;;;;5.00;1.50;;;;;;;20.11;63.96;101085.69;5053267;28;20183;-74
2021/08/22 09:56:02;;;;;;;4.03;1.40;;;;;;;19.73;65.35;101097.19;5053490;28;20183;-74
2021/08/22 09:59:05;;;;;;;8.90;1.53;;;;;;;19.52;65.75;101095.31;5053406;28;20210;-74
2021/08/22 10:01:52;;;;;;;2.90;1.47;;;;;;;19.57;65.57;101082.25;5052945;28;20198;-74
2021/08/22 10:04:39;;;;;;;2.87;1.30;;;;;;;19.64;63.90;101088.84;5052317;28;20677;-75
2021/08/22 10:07:38;;;;;;;4.03;1.10;;;;;;;19.90;63.33;101077.59;5053438;28;20160;-75
2021/08/22 10:10:27;;;;;;;2.20;1.07;;;;;;;19.99;62.31;101090.31;5054113;28;20204;-73
2021/08/22 10:12:52;;;;;;;2.60;1.13;;;;;;;20.05;62.25;101089.78;5033938;28;20270;-73
2021/08/22 10:15:19;;;;;;;2.03;1.07;;;;;;;20.53;62.14;101086.41;5057208;28;20264;-74
2021/08/22 10:17:48;;;;;;;1.37;1.13;;;;;;;20.15;62.31;101090.69;5057046;28;20206;-74
2021/08/22 10:20:14;;;;;;;5.60;1.27;;;;;;;20.02;62.64;101084.63;5038567;28;20191;-74
2021/08/22 10:22:40;;;;;;;3.33;1.30;;;;;;;20.19;62.92;101084.00;5056823;28;20236;-74
2021/08/22 10:25:09;;;;;;;2.30;1.40;;;;;;;20.02;62.82;101073.78;5056828;28;20211;-74
2021/08/22 10:27:35;;;;;;;4.33;1.17;;;;;;;20.54;61.41;101067.31;5056919;28;20168;-73
2021/08/22 10:30:04;;;;;;;2.10;1.30;;;;;;;20.80;61.60;101077.59;5056193;28;20270;-74
2021/08/22 10:32:30;;;;;;;2.83;1.70;;;;;;;20.99;60.91;101077.63;5058066;28;20226;-74
2021/08/22 10:35:07;;;;;;;1.57;1.10;;;;;;;21.53;60.12;101079.75;5055739;28;20175;-74
2021/08/22 10:37:34;;;;;;;1.57;1.07;;;;;;;20.90;61.15;101079.34;5056447;28;20198;-74
2021/08/22 10:40:24;;;;;;;3.87;1.50;;;;;;;21.38;59.12;101077.63;5055519;28;20191;-74
2021/08/22 10:43:05;;;;;;;2.00;1.27;;;;;;;21.85;58.18;101078.53;5054940;28;20179;-74
2021/08/22 10:45:46;;;;;;;2.77;1.60;;;;;;;21.44;59.35;101083.34;5056333;28;20662;-73
2021/08/22 10:48:32;;;;;;;2.50;1.50;;;;;;;21.79;59.02;101079.13;5055110;28;20203;-74
2021/08/22 10:50:57;;;;;;;5.07;1.23;;;;;;;22.00;56.51;101063.47;5054497;28;20607;-74
2021/08/22 10:53:26;;;;;;;3.20;1.20;;;;;;;21.97;58.00;101061.06;5055881;28;20172;-73
2021/08/22 10:55:51;;;;;;;2.73;1.27;;;;;;;21.67;58.19;101064.00;5038248;28;20172;-73
2021/08/22 10:58:16;;;;;;;2.27;1.00;;;;;;;21.91;56.92;101058.06;5056015;28;20200;-74
2021/08/22 11:00:42;;;;;;;1.53;1.10;;;;;;;22.43;55.22;101051.97;5056300;28;20196;-74
2021/08/22 11:03:16;;;;;;;1.87;1.00;;;;;;;22.70;55.08;101051.09;5055032;28;20611;-73
2021/08/22 11:05:41;;;;;;;3.60;0.97;;;;;;;22.71;54.42;101052.81;5056091;28;20175;-74
2021/08/22 11:08:25;;;;;;;1.97;1.30;;;;;;;22.93;55.03;101056.09;5054841;28;20632;-74
2021/08/22 11:11:01;;;;;;;4.43;1.10;;;;;;;23.08;54.13;101044.50;5055609;28;20745;-73
2021/08/22 11:13:27;;;;;;;1.53;0.90;;;;;;;23.38;51.72;101037.75;5037883;28;20171;-72
2021/08/22 11:15:53;;;;;;;2.17;1.37;;;;;;;22.68;54.61;101035.94;5037652;28;20175;-73
2021/08/22 11:18:19;;;;;;;4.43;1.03;;;;;;;23.07;53.09;101045.53;5055492;28;20206;-74
2021/08/22 11:20:44;;;;;;;1.90;0.97;;;;;;;24.21;48.55;101037.25;5054092;28;20210;-73
2021/08/22 11:23:17;;;;;;;3.77;1.00;;;;;;;24.09;49.17;101046.72;5054198;28;20182;-73
2021/08/22 11:25:43;;;;;;;;;;;;;;;26.45;47.04;101048.50;5055490;28;20040;-73
2021/08/22 11:28:10;;;;;;;1.60;1.00;;;;;;;24.52;48.69;101046.56;5054308;28;19913;-73
2021/08/22 11:30:37;;;;;;;1.17;0.80;;;;;;;24.73;48.32;101059.75;5054047;28;20237;-73